createdAt,value
2022-11-26T00:01:44.890Z,98263.30
2022-11-26T00:04:13.077Z,98264.14
2022-11-26T00:06:43.023Z,98265.67
2022-11-26T00:09:25.231Z,98264.05
2022-11-26T00:11:53.170Z,98259.24
2022-11-26T00:14:21.289Z,98264.23
2022-11-26T00:16:49.434Z,98264.59
2022-11-26T00:19:17.396Z,98265.95
2022-11-26T00:21:45.520Z,98262.60
2022-11-26T00:24:27.364Z,98266.69
2022-11-26T00:26:57.673Z,98270.44
2022-11-26T00:29:25.848Z,98274.89
2022-11-26T00:31:53.972Z,98279.52
2022-11-26T00:34:22.169Z,98279.59
2022-11-26T00:36:50.134Z,98279.48
2022-11-26T00:39:23.672Z,98284.77
2022-11-26T00:41:52.982Z,98286.11
2022-11-26T00:44:23.765Z,98288.11
2022-11-26T00:46:51.801Z,98285.14
2022-11-26T00:49:21.205Z,98286.51
2022-11-26T00:51:49.395Z,98282.65
2022-11-26T00:54:19.675Z,98284.44
2022-11-26T00:56:48.545Z,98279.49
2022-11-26T00:59:20.475Z,98278.48
2022-11-26T01:01:49.838Z,98284.02
2022-11-26T01:04:17.998Z,98283.96
2022-11-26T01:06:46.816Z,98285.27
2022-11-26T01:09:20.694Z,98289.88
2022-11-26T01:11:53.750Z,98293.10
2022-11-26T01:14:23.253Z,98297.38
2022-11-26T01:16:54.646Z,98303.80
2022-11-26T01:19:22.788Z,98305.75
2022-11-26T01:21:50.917Z,98307.18
2022-11-26T01:24:18.924Z,98307.45
2022-11-26T01:26:47.042Z,98311.30
2022-11-26T01:29:19.856Z,98313.42
2022-11-26T01:31:48.020Z,98315.56
2022-11-26T01:34:16.175Z,98309.77
2022-11-26T01:36:44.713Z,98308.45
2022-11-26T01:39:19.175Z,98305.54
2022-11-26T01:42:10.655Z,98305.08
2022-11-26T01:44:39.016Z,98303.20
2022-11-26T01:47:40.263Z,98299.41
2022-11-26T01:50:34.293Z,98300.78
2022-11-26T01:53:23.801Z,98299.06
2022-11-26T01:55:54.840Z,98298.85
2022-11-26T01:58:29.532Z,98301.24
2022-11-26T02:00:57.691Z,98305.03
2022-11-26T02:03:28.351Z,98309.85
2022-11-26T02:06:02.439Z,98313.15
2022-11-26T02:08:33.097Z,98314.25
2022-11-26T02:11:14.032Z,98317.47
2022-11-26T02:13:42.732Z,98320.14
2022-11-26T02:16:28.064Z,98318.30
2022-11-26T02:19:17.662Z,98319.59
2022-11-26T02:21:56.517Z,98316.20
2022-11-26T02:24:43.349Z,98311.61
2022-11-26T02:27:14.410Z,98313.23
2022-11-26T02:30:07.010Z,98311.13
2022-11-26T02:32:47.296Z,98313.01
2022-11-26T02:35:26.554Z,98311.96
2022-11-26T02:38:00.219Z,98309.54
2022-11-26T02:40:28.806Z,98306.76
2022-11-26T02:42:57.139Z,98305.98
2022-11-26T02:45:34.213Z,98301.52
2022-11-26T02:48:05.982Z,98302.27
2022-11-26T02:50:45.115Z,98299.95
2022-11-26T02:53:15.419Z,98296.11
2022-11-26T02:55:49.791Z,98293.48
2022-11-26T02:58:19.658Z,98294.48
2022-11-26T03:00:49.720Z,98293.52
2022-11-26T03:03:26.103Z,98293.93
2022-11-26T03:05:58.986Z,98296.02
2022-11-26T03:08:28.899Z,98295.89
2022-11-26T03:10:57.242Z,98301.27
2022-11-26T03:13:25.586Z,98300.25
2022-11-26T03:15:53.769Z,98303.73
2022-11-26T03:18:21.882Z,98303.94
2022-11-26T03:20:52.342Z,98305.16
2022-11-26T03:23:20.947Z,98308.47
2022-11-26T03:25:49.055Z,98310.59
2022-11-26T03:28:17.231Z,98316.35
2022-11-26T03:30:45.348Z,98331.92
2022-11-26T03:33:13.346Z,98342.73
2022-11-26T03:35:41.487Z,98348.44
2022-11-26T03:38:09.384Z,98357.34
2022-11-26T03:40:37.407Z,98361.00
2022-11-26T03:43:05.428Z,98366.63
2022-11-26T03:45:33.873Z,98370.55
2022-11-26T03:48:01.983Z,98373.14
2022-11-26T03:50:30.060Z,98372.92
2022-11-26T03:52:57.992Z,98376.00
2022-11-26T03:55:26.165Z,98380.26
2022-11-26T03:57:54.213Z,98381.08
2022-11-26T04:00:22.617Z,98386.20
2022-11-26T04:02:51.787Z,98389.92
2022-11-26T04:05:20.327Z,98389.84
2022-11-26T04:07:48.564Z,98390.25
2022-11-26T04:10:16.712Z,98394.09
2022-11-26T04:12:44.655Z,98399.16
2022-11-26T04:15:12.902Z,98401.27
2022-11-26T04:17:41.077Z,98401.06
2022-11-26T04:20:09.703Z,98402.45
2022-11-26T04:22:37.977Z,98400.10
2022-11-26T04:25:06.323Z,98400.81
2022-11-26T04:27:34.869Z,98403.46
2022-11-26T04:30:03.814Z,98404.17
2022-11-26T04:32:31.989Z,98408.07
2022-11-26T04:35:00.084Z,98407.54
2022-11-26T04:37:28.045Z,98405.59
2022-11-26T04:39:56.206Z,98410.79
2022-11-26T04:42:24.165Z,98408.22
2022-11-26T04:44:52.179Z,98408.34
2022-11-26T04:47:20.134Z,98408.63
2022-11-26T04:49:48.259Z,98408.98
2022-11-26T04:52:16.616Z,98411.80
2022-11-26T04:54:44.651Z,98410.73
2022-11-26T04:57:12.829Z,98413.95
2022-11-26T04:59:40.803Z,98413.89
2022-11-26T05:02:08.758Z,98409.77
2022-11-26T05:04:37.096Z,98406.71
2022-11-26T05:07:05.930Z,98405.05
2022-11-26T05:09:34.006Z,98402.53
2022-11-26T05:12:02.340Z,98405.83
2022-11-26T05:14:30.371Z,98408.40
2022-11-26T05:16:58.576Z,98407.09
2022-11-26T05:19:26.572Z,98412.44
2022-11-26T05:21:54.480Z,98415.16
2022-11-26T05:24:22.664Z,98415.45
2022-11-26T05:26:55.297Z,98419.11
2022-11-26T05:29:26.152Z,98415.33
2022-11-26T05:31:54.089Z,98412.02
2022-11-26T05:34:22.560Z,98409.21
2022-11-26T05:36:50.572Z,98411.95
2022-11-26T05:39:18.545Z,98416.39
2022-11-26T05:41:46.625Z,98418.81
2022-11-26T05:44:14.702Z,98417.30
2022-11-26T05:46:43.510Z,98419.17
2022-11-26T05:49:11.530Z,98421.15
2022-11-26T05:51:39.537Z,98423.39
2022-11-26T05:54:07.718Z,98424.99
2022-11-26T05:56:35.995Z,98422.83
2022-11-26T05:59:04.098Z,98422.96
2022-11-26T06:01:32.000Z,98424.61
2022-11-26T06:03:59.937Z,98427.98
2022-11-26T06:06:27.909Z,98424.44
2022-11-26T06:08:55.825Z,98427.98
2022-11-26T06:11:23.945Z,98431.83
2022-11-26T06:13:52.336Z,98435.97
2022-11-26T06:16:20.563Z,98440.27
2022-11-26T06:18:48.752Z,98441.89
2022-11-26T06:21:16.720Z,98441.21
2022-11-26T06:23:52.939Z,98440.99
2022-11-26T06:26:24.160Z,98445.73
2022-11-26T06:28:52.262Z,98448.80
2022-11-26T06:31:20.363Z,98451.05
2022-11-26T06:33:48.717Z,98455.36
2022-11-26T06:36:16.780Z,98457.38
2022-11-26T06:38:44.858Z,98458.23
2022-11-26T06:41:12.839Z,98461.60
2022-11-26T06:43:41.188Z,98461.64
2022-11-26T06:46:11.238Z,98463.77
2022-11-26T06:48:40.462Z,98464.84
2022-11-26T06:51:15.261Z,98464.58
2022-11-26T06:53:43.982Z,98468.69
2022-11-26T06:56:18.512Z,98466.55
2022-11-26T06:58:47.913Z,98470.95
2022-11-26T07:01:19.811Z,98473.26
2022-11-26T07:03:48.171Z,98474.86
2022-11-26T07:06:31.227Z,98475.95
2022-11-26T07:09:05.654Z,98476.04
2022-11-26T07:11:34.183Z,98481.98
2022-11-26T07:14:02.769Z,98479.36
2022-11-26T07:16:30.935Z,98481.96
2022-11-26T07:19:02.907Z,98484.02
2022-11-26T07:21:31.449Z,98491.89
2022-11-26T07:23:59.873Z,98496.61
2022-11-26T07:26:27.939Z,98496.10
2022-11-26T07:28:55.866Z,98494.20
2022-11-26T07:31:24.249Z,98494.88
2022-11-26T07:33:52.819Z,98501.41
2022-11-26T07:36:24.377Z,98503.92
2022-11-26T07:38:57.831Z,98510.30
2022-11-26T07:41:26.956Z,98510.73
2022-11-26T07:43:55.589Z,98514.08
2022-11-26T07:46:26.703Z,98516.21
2022-11-26T07:48:55.998Z,98519.65
2022-11-26T07:51:29.189Z,98524.02
2022-11-26T07:53:59.693Z,98528.80
2022-11-26T07:56:27.810Z,98532.98
2022-11-26T07:58:55.833Z,98531.71
2022-11-26T08:01:30.060Z,98535.08
2022-11-26T08:04:00.410Z,98534.89
2022-11-26T08:06:30.647Z,98534.10
2022-11-26T08:09:00.249Z,98535.73
2022-11-26T08:11:31.382Z,98535.27
2022-11-26T08:14:02.357Z,98538.41
2022-11-26T08:16:31.196Z,98538.14
2022-11-26T08:19:02.393Z,98537.34
2022-11-26T08:21:30.617Z,98540.73
2022-11-26T08:23:58.897Z,98544.70
2022-11-26T08:26:35.091Z,98544.60
2022-11-26T08:29:05.593Z,98549.31
2022-11-26T08:31:35.103Z,98552.96
2022-11-26T08:34:03.804Z,98558.20
2022-11-26T08:36:31.992Z,98561.89
2022-11-26T08:39:00.683Z,98566.39
2022-11-26T08:41:29.093Z,98567.73
2022-11-26T08:44:12.425Z,98566.98
2022-11-26T08:46:42.058Z,98569.09
2022-11-26T08:49:13.416Z,98567.73
2022-11-26T08:51:42.008Z,98571.34
2022-11-26T08:54:11.433Z,98572.83
2022-11-26T08:56:39.556Z,98572.66
2022-11-26T08:59:07.731Z,98570.08
2022-11-26T09:01:35.864Z,98571.04
2022-11-26T09:04:04.895Z,98572.73
2022-11-26T09:06:37.301Z,98571.65
2022-11-26T09:09:13.111Z,98572.97
2022-11-26T09:11:49.501Z,98570.71
2022-11-26T09:14:25.079Z,98574.54
2022-11-26T09:16:55.370Z,98565.24
2022-11-26T09:19:24.601Z,98560.94
2022-11-26T09:21:53.205Z,98561.27
2022-11-26T09:24:23.309Z,98558.61
2022-11-26T09:26:52.638Z,98560.08
2022-11-26T09:29:22.881Z,98561.88
2022-11-26T09:34:39.909Z,98562.88
2022-11-26T09:37:08.460Z,98561.45
2022-11-26T09:39:36.698Z,98564.67
2022-11-26T09:42:05.627Z,98569.73
2022-11-26T09:44:41.060Z,98575.25
2022-11-26T09:47:22.643Z,98576.15
2022-11-26T09:49:57.431Z,98577.89
2022-11-26T09:52:52.778Z,98581.16
2022-11-26T09:55:31.209Z,98582.29
2022-11-26T09:58:13.907Z,98577.44
2022-11-26T10:00:56.512Z,98578.02
2022-11-26T10:03:36.733Z,98578.05
2022-11-26T10:06:42.979Z,98577.73
2022-11-26T10:09:26.376Z,98578.11
2022-11-26T10:12:10.912Z,98575.30
2022-11-26T10:14:54.494Z,98574.77
2022-11-26T10:17:44.151Z,98579.36
2022-11-26T10:20:44.936Z,98578.02
2022-11-26T10:23:13.114Z,98579.23
2022-11-26T10:25:46.507Z,98582.54
2022-11-26T10:28:33.709Z,98581.63
2022-11-26T10:31:14.259Z,98587.25
2022-11-26T10:33:56.379Z,98589.20
2022-11-26T10:36:42.362Z,98585.48
2022-11-26T10:39:15.280Z,98586.52
2022-11-26T10:41:44.253Z,98589.29
2022-11-26T10:44:28.832Z,98588.41
2022-11-26T10:46:57.947Z,98591.27
2022-11-26T10:49:29.575Z,98589.66
2022-11-26T10:52:04.408Z,98589.77
2022-11-26T10:54:35.771Z,98590.41
2022-11-26T10:57:10.005Z,98592.25
2022-11-26T10:59:44.161Z,98591.83
2022-11-26T11:02:39.447Z,98587.09
2022-11-26T11:05:10.374Z,98585.52
2022-11-26T11:07:38.724Z,98586.38
2022-11-26T11:10:10.033Z,98588.54
2022-11-26T11:13:01.132Z,98586.36
2022-11-26T11:15:32.366Z,98583.52
2022-11-26T11:18:13.318Z,98585.04
2022-11-26T11:20:52.417Z,98585.20
2022-11-26T11:23:39.915Z,98587.46
2022-11-26T11:26:23.795Z,98583.52
2022-11-26T11:28:55.178Z,98579.59
2022-11-26T11:31:26.491Z,98576.86
2022-11-26T11:34:18.930Z,98578.78
2022-11-26T11:37:05.345Z,98578.45
2022-11-26T11:39:35.583Z,98574.86
2022-11-26T11:42:16.622Z,98576.48
2022-11-26T11:44:47.968Z,98575.60
2022-11-26T11:47:41.107Z,98576.98
2022-11-26T11:50:44.383Z,98577.52
2022-11-26T11:53:38.320Z,98577.22
2022-11-26T11:56:39.140Z,98575.69
2022-11-26T11:59:36.270Z,98573.93
2022-11-26T12:02:10.674Z,98574.91
2022-11-26T12:04:59.199Z,98576.21
2022-11-26T12:07:48.021Z,98575.51
2022-11-26T12:10:19.236Z,98573.63
2022-11-26T12:12:52.562Z,98571.91
2022-11-26T12:15:30.896Z,98572.23
2022-11-26T12:18:22.212Z,98570.52
2022-11-26T12:21:04.959Z,98570.00
2022-11-26T12:23:53.752Z,98568.70
2022-11-26T12:26:33.200Z,98568.27
2022-11-26T12:29:17.903Z,98568.36
2022-11-26T12:31:51.197Z,98563.48
2022-11-26T12:34:32.096Z,98566.30
2022-11-26T12:37:12.347Z,98564.08
2022-11-26T12:39:53.876Z,98563.38
2022-11-26T12:42:47.961Z,98560.95
2022-11-26T12:45:49.400Z,98560.73
2022-11-26T12:48:48.701Z,98561.23
2022-11-26T12:51:44.432Z,98559.77
2022-11-26T12:54:16.064Z,98559.13
2022-11-26T12:57:07.313Z,98561.48
2022-11-26T12:59:49.429Z,98559.74
2022-11-26T13:02:21.476Z,98562.20
2022-11-26T13:04:51.733Z,98565.68
2022-11-26T13:07:42.307Z,98567.86
2022-11-26T13:10:29.443Z,98570.93
2022-11-26T13:13:00.373Z,98563.76
2022-11-26T13:15:34.240Z,98558.13
2022-11-26T13:18:04.763Z,98559.83
2022-11-26T13:20:50.324Z,98559.27
2022-11-26T13:23:55.920Z,98558.92
2022-11-26T13:26:42.859Z,98564.68
2022-11-26T13:30:02.049Z,98570.46
2022-11-26T13:32:49.310Z,98573.56
2022-11-26T13:35:36.680Z,98579.96
2022-11-26T13:38:24.787Z,98586.19
2022-11-26T13:41:02.408Z,98590.10
2022-11-26T13:43:50.450Z,98597.26
2022-11-26T13:46:22.503Z,98600.99
2022-11-26T13:49:06.982Z,98601.66
2022-11-26T13:51:39.980Z,98607.72
2022-11-26T13:54:21.661Z,98611.53
2022-11-26T13:56:55.906Z,98614.14
2022-11-26T13:59:28.571Z,98612.57
2022-11-26T14:01:57.596Z,98617.31
2022-11-26T14:04:26.035Z,98618.73
2022-11-26T14:07:06.358Z,98618.21
2022-11-26T14:09:46.633Z,98618.59
2022-11-26T14:12:16.651Z,98620.33
2022-11-26T14:14:47.879Z,98622.90
2022-11-26T14:17:22.209Z,98624.56
2022-11-26T14:19:58.860Z,98630.77
2022-11-26T14:22:36.256Z,98637.19
2022-11-26T14:25:13.183Z,98636.48
2022-11-26T14:27:54.867Z,98635.75
2022-11-26T14:30:25.706Z,98635.54
2022-11-26T14:33:12.187Z,98637.23
2022-11-26T14:35:41.898Z,98636.49
2022-11-26T14:38:28.273Z,98640.27
2022-11-26T14:41:01.445Z,98641.24
2022-11-26T14:43:29.872Z,98640.52
2022-11-26T14:46:06.778Z,98643.09
2022-11-26T14:48:42.145Z,98639.06
2022-11-26T14:51:12.139Z,98638.89
2022-11-26T14:53:47.789Z,98637.70
2022-11-26T14:56:23.787Z,98637.41
2022-11-26T14:58:55.057Z,98637.64
2022-11-26T15:01:25.919Z,98636.81
2022-11-26T15:04:01.072Z,98639.27
2022-11-26T15:06:37.933Z,98639.70
2022-11-26T15:09:18.047Z,98641.98
2022-11-26T15:12:08.129Z,98640.45
2022-11-26T15:14:42.081Z,98639.21
2022-11-26T15:17:14.707Z,98642.00
2022-11-26T15:19:44.216Z,98643.71
2022-11-26T15:22:31.328Z,98642.98
2022-11-26T15:25:00.175Z,98643.31
2022-11-26T15:27:39.047Z,98639.30
2022-11-26T15:30:21.181Z,98639.24
2022-11-26T15:32:57.320Z,98647.02
2022-11-26T15:35:25.676Z,98646.60
2022-11-26T15:37:55.361Z,98647.59
2022-11-26T15:40:31.752Z,98647.71
2022-11-26T15:43:03.934Z,98648.71
2022-11-26T15:45:41.168Z,98649.20
2022-11-26T15:48:51.946Z,98648.28
2022-11-26T15:51:35.423Z,98646.27
2022-11-26T15:54:19.206Z,98645.35
2022-11-26T15:56:52.029Z,98653.98
2022-11-26T15:59:22.707Z,98657.90
2022-11-26T16:01:51.835Z,98654.04
2022-11-26T16:04:38.685Z,98655.37
2022-11-26T16:07:10.170Z,98655.33
2022-11-26T16:09:38.615Z,98655.52
2022-11-26T16:12:28.284Z,98655.73
2022-11-26T16:15:11.136Z,98660.63
2022-11-26T16:17:42.167Z,98666.59
2022-11-26T16:20:37.402Z,98670.40
2022-11-26T16:23:05.933Z,98671.27
2022-11-26T16:25:38.349Z,98668.46
2022-11-26T16:28:09.938Z,98667.59
2022-11-26T16:30:44.277Z,98663.92
2022-11-26T16:33:12.812Z,98667.70
2022-11-26T16:35:46.150Z,98666.04
2022-11-26T16:38:20.285Z,98666.01
2022-11-26T16:40:50.222Z,98664.58
2022-11-26T16:43:19.749Z,98667.52
2022-11-26T16:45:50.540Z,98669.91
2022-11-26T16:48:26.887Z,98671.27
2022-11-26T16:50:56.100Z,98675.56
2022-11-26T16:53:24.709Z,98677.41
2022-11-26T16:55:54.044Z,98684.45
2022-11-26T16:58:29.060Z,98691.00
2022-11-26T17:00:57.929Z,98688.35
2022-11-26T17:03:30.117Z,98687.80
2022-11-26T17:06:02.193Z,98689.02
2022-11-26T17:08:31.071Z,98686.64
2022-11-26T17:10:59.211Z,98683.74
2022-11-26T17:13:29.799Z,98686.73
2022-11-26T17:15:58.357Z,98688.73
2022-11-26T17:18:27.119Z,98694.53
2022-11-26T17:20:55.828Z,98698.48
2022-11-26T17:23:24.470Z,98698.73
2022-11-26T17:25:54.501Z,98696.68
2022-11-26T17:28:23.593Z,98698.45
2022-11-26T17:30:51.899Z,98695.53
2022-11-26T17:33:20.393Z,98693.07
2022-11-26T17:35:48.900Z,98695.82
2022-11-26T17:38:21.282Z,98694.41
2022-11-26T17:40:49.628Z,98694.02
2022-11-26T17:43:18.099Z,98695.69
2022-11-26T17:45:46.675Z,98699.45
2022-11-26T17:48:15.726Z,98699.90
2022-11-26T17:50:44.853Z,98698.30
2022-11-26T17:53:14.314Z,98691.83
2022-11-26T17:55:42.574Z,98694.72
2022-11-26T17:58:14.759Z,98699.52
2022-11-26T18:00:43.016Z,98704.85
2022-11-26T18:03:11.321Z,98708.79
2022-11-26T18:05:42.278Z,98708.95
2022-11-26T18:08:11.253Z,98708.77
2022-11-26T18:10:41.091Z,98714.54
2022-11-26T18:13:09.504Z,98716.14
2022-11-26T18:15:37.664Z,98716.83
2022-11-26T18:18:05.894Z,98718.73
2022-11-26T18:20:34.645Z,98718.34
2022-11-26T18:23:03.009Z,98716.38
2022-11-26T18:25:34.319Z,98712.23
2022-11-26T18:28:02.645Z,98717.49
2022-11-26T18:30:31.011Z,98715.95
2022-11-26T18:32:59.474Z,98716.16
2022-11-26T18:35:27.713Z,98717.58
2022-11-26T18:37:56.133Z,98718.81
2022-11-26T18:40:24.535Z,98717.73
2022-11-26T18:42:53.165Z,98717.74
2022-11-26T18:45:21.267Z,98722.25
2022-11-26T18:47:49.866Z,98720.34
2022-11-26T18:50:18.880Z,98725.77
2022-11-26T18:52:47.473Z,98724.73
2022-11-26T18:55:15.815Z,98727.20
2022-11-26T18:57:44.213Z,98724.20
2022-11-26T19:00:14.641Z,98725.55
2022-11-26T19:02:42.791Z,98728.83
2022-11-26T19:05:11.228Z,98729.64
2022-11-26T19:07:39.542Z,98729.90
2022-11-26T19:10:08.278Z,98730.20
2022-11-26T19:12:36.559Z,98733.54
2022-11-26T19:15:05.517Z,98737.23
2022-11-26T19:17:33.917Z,98742.69
2022-11-26T19:20:02.077Z,98746.06
2022-11-26T19:22:30.401Z,98744.27
2022-11-26T19:24:58.527Z,98747.33
2022-11-26T19:27:26.607Z,98742.97
2022-11-26T19:29:54.733Z,98743.77
2022-11-26T19:32:23.085Z,98748.40
2022-11-26T19:34:51.366Z,98751.08
2022-11-26T19:37:20.304Z,98746.10
2022-11-26T19:39:48.451Z,98743.80
2022-11-26T19:42:16.901Z,98740.64
2022-11-26T19:44:45.512Z,98740.99
2022-11-26T19:47:13.805Z,98742.73
2022-11-26T19:49:42.165Z,98744.27
2022-11-26T19:52:10.572Z,98745.81
2022-11-26T19:54:38.732Z,98749.90
2022-11-26T19:57:07.617Z,98752.09
2022-11-26T19:59:35.812Z,98756.53
2022-11-26T20:02:04.165Z,98756.65
2022-11-26T20:04:32.445Z,98756.95
2022-11-26T20:07:00.895Z,98758.13
2022-11-26T20:09:29.253Z,98759.66
2022-11-26T20:11:57.549Z,98761.67
2022-11-26T20:14:25.764Z,98762.55
2022-11-26T20:16:57.778Z,98762.89
2022-11-26T20:19:29.309Z,98759.41
2022-11-26T20:21:57.437Z,98761.70
2022-11-26T20:24:26.659Z,98760.52
2022-11-26T20:26:55.889Z,98760.09
2022-11-26T20:29:26.540Z,98764.86
2022-11-26T20:31:54.966Z,98761.80
2022-11-26T20:34:26.342Z,98763.70
2022-11-26T20:36:54.704Z,98763.48
2022-11-26T20:39:24.154Z,98762.68
2022-11-26T20:41:52.367Z,98763.92
2022-11-26T20:44:20.375Z,98762.41
2022-11-26T20:46:48.587Z,98765.25
2022-11-26T20:49:16.803Z,98763.02
2022-11-26T20:51:44.922Z,98763.55
2022-11-26T20:54:12.961Z,98764.87
2022-11-26T20:56:41.025Z,98757.86
2022-11-26T20:59:09.964Z,98760.77
2022-11-26T21:01:39.004Z,98763.94
2022-11-26T21:04:07.521Z,98763.15
2022-11-26T21:06:36.170Z,98764.60
2022-11-26T21:09:06.508Z,98765.37
2022-11-26T21:11:34.831Z,98770.06
2022-11-26T21:14:04.084Z,98774.39
2022-11-26T21:16:33.442Z,98780.02
2022-11-26T21:19:02.069Z,98777.31
2022-11-26T21:21:30.521Z,98774.58
2022-11-26T21:23:59.203Z,98778.07
2022-11-26T21:26:27.649Z,98777.83
2022-11-26T21:29:00.058Z,98781.71
2022-11-26T21:31:30.541Z,98782.63
2022-11-26T21:34:04.390Z,98780.89
2022-11-26T21:36:33.901Z,98779.74
2022-11-26T21:39:02.431Z,98774.50
2022-11-26T21:41:33.719Z,98772.37
2022-11-26T21:44:04.122Z,98772.23
2022-11-26T21:46:38.169Z,98770.25
2022-11-26T21:49:07.807Z,98776.33
2022-11-26T21:51:35.943Z,98775.34
2022-11-26T21:54:04.306Z,98774.39
2022-11-26T21:56:32.947Z,98770.31
2022-11-26T21:59:01.483Z,98772.61
2022-11-26T22:01:33.156Z,98776.30
2022-11-26T22:04:05.411Z,98775.71
2022-11-26T22:06:34.334Z,98777.55
2022-11-26T22:09:03.875Z,98777.11
2022-11-26T22:11:35.897Z,98777.50
2022-11-26T22:14:05.127Z,98773.55
2022-11-26T22:16:34.076Z,98770.39
2022-11-26T22:19:02.400Z,98764.27
2022-11-26T22:21:39.612Z,98762.31
2022-11-26T22:24:13.492Z,98761.31
2022-11-26T22:26:42.476Z,98761.27
2022-11-26T22:29:19.067Z,98758.52
2022-11-26T22:31:48.537Z,98757.67
2022-11-26T22:34:18.856Z,98760.27
2022-11-26T22:36:46.996Z,98756.13
2022-11-26T22:39:17.797Z,98753.05
2022-11-26T22:41:47.853Z,98757.38
2022-11-26T22:44:16.813Z,98760.79
2022-11-26T22:46:45.692Z,98755.91
2022-11-26T22:49:16.207Z,98750.21
2022-11-26T22:51:45.121Z,98752.65
2022-11-26T22:54:15.804Z,98756.30
2022-11-26T22:56:43.711Z,98750.15
2022-11-26T22:59:13.602Z,98741.83
2022-11-26T23:01:41.694Z,98745.43
2022-11-26T23:04:11.502Z,98746.30
2022-11-26T23:06:40.329Z,98742.37
2022-11-26T23:09:10.071Z,98734.90
2022-11-26T23:11:41.056Z,98737.10
2022-11-26T23:14:11.950Z,98747.57
2022-11-26T23:16:42.746Z,98752.08
2022-11-26T23:19:14.896Z,98761.08
2022-11-26T23:21:44.731Z,98765.95
2022-11-26T23:24:14.427Z,98766.04
2022-11-26T23:26:42.868Z,98769.80
2022-11-26T23:29:12.059Z,98768.31
2022-11-26T23:31:42.537Z,98774.48
2022-11-26T23:34:11.030Z,98782.34
2022-11-26T23:36:39.751Z,98776.93
2022-11-26T23:39:10.980Z,98770.55
2022-11-26T23:41:39.332Z,98772.52
2022-11-26T23:44:07.587Z,98777.48
2022-11-26T23:46:35.793Z,98776.94
2022-11-26T23:49:04.827Z,98769.20
2022-11-26T23:51:34.285Z,98771.33
2022-11-26T23:54:02.347Z,98770.25
2022-11-26T23:56:33.726Z,98770.02
2022-11-26T23:59:03.844Z,98769.60
